Time;durP1;ratioP1;P1;durP2;ratioP2;P2;SDS_P1;SDS_P2;PMS_P1;PMS_P2;Temp;Humidity;BMP_temperature;BMP_pressure;BME280_temperature;BME280_humidity;BME280_pressure;Samples;Min_cycle;Max_cycle;Signal;HPM_P1;HPM_P2
2021/01/31 00:00:43;;;;;;;15.68;9.95;;;1.60;89.60;;;;;;5052514;28;20032;-67
2021/01/31 00:03:30;;;;;;;17.40;11.23;;;1.60;89.60;;;;;;5046961;28;20127;-67
2021/01/31 00:05:59;;;;;;;17.02;10.57;;;1.50;89.50;;;;;;5048859;28;20033;-67
2021/01/31 00:08:25;;;;;;;15.77;10.23;;;1.60;89.50;;;;;;5049825;28;20017;-67
2021/01/31 00:10:52;;;;;;;16.85;10.48;;;1.60;89.40;;;;;;5049271;28;20090;-67
2021/01/31 00:13:19;;;;;;;19.85;10.65;;;1.50;89.30;;;;;;5048406;28;20029;-67
2021/01/31 00:15:47;;;;;;;17.50;11.18;;;1.50;89.20;;;;;;5047909;28;20033;-67
2021/01/31 00:18:14;;;;;;;18.08;11.05;;;1.50;89.30;;;;;;5054324;28;20229;-68
2021/01/31 00:20:46;;;;;;;20.98;11.48;;;1.50;89.40;;;;;;5031877;28;20408;-67
2021/01/31 00:23:12;;;;;;;17.05;10.70;;;1.50;89.50;;;;;;5050047;28;20423;-67
2021/01/31 00:25:38;;;;;;;19.08;11.57;;;1.50;89.40;;;;;;5047599;28;20082;-67
2021/01/31 00:28:05;;;;;;;19.73;10.75;;;1.50;89.30;;;;;;5068813;28;20103;-67
2021/01/31 00:30:36;;;;;;;18.42;10.73;;;1.50;89.30;;;;;;5051961;28;20021;-67
2021/01/31 00:33:04;;;;;;;17.92;10.43;;;1.50;89.40;;;;;;5034152;28;20053;-67
2021/01/31 00:35:32;;;;;;;18.40;10.07;;;1.50;89.40;;;;;;5053668;28;20032;-67
2021/01/31 00:37:58;;;;;;;17.50;10.25;;;1.50;89.30;;;;;;5061676;28;20033;-68
2021/01/31 00:40:24;;;;;;;15.32;9.73;;;1.40;89.10;;;;;;5058240;28;20036;-67
2021/01/31 00:42:49;;;;;;;18.90;11.05;;;1.40;89.20;;;;;;5062249;28;20053;-67
2021/01/31 00:45:19;;;;;;;16.65;10.15;;;1.40;89.30;;;;;;5053183;28;20065;-67
2021/01/31 00:47:44;;;;;;;18.55;10.88;;;1.40;89.40;;;;;;5057879;28;20035;-67
2021/01/31 00:50:16;;;;;;;18.33;11.07;;;1.40;89.40;;;;;;5055923;28;20629;-67
2021/01/31 00:52:41;;;;;;;15.02;10.10;;;1.30;89.50;;;;;;5052290;28;20025;-67
2021/01/31 00:55:07;;;;;;;19.58;10.88;;;1.30;89.50;;;;;;5038076;28;20071;-67
2021/01/31 00:57:33;;;;;;;15.65;9.75;;;1.40;89.50;;;;;;5061583;28;20028;-68
2021/01/31 00:59:58;;;;;;;16.33;9.85;;;1.30;89.50;;;;;;5069458;28;20033;-67
2021/01/31 01:02:24;;;;;;;16.33;9.90;;;1.30;89.40;;;;;;5053480;28;20031;-67
2021/01/31 01:04:51;;;;;;;17.80;10.32;;;1.30;89.50;;;;;;5053265;28;20165;-67
2021/01/31 01:07:17;;;;;;;16.08;10.30;;;1.30;89.50;;;;;;5035054;28;20143;-67
2021/01/31 01:09:47;;;;;;;18.75;11.02;;;1.30;89.50;;;;;;5060998;28;20033;-67
2021/01/31 01:12:13;;;;;;;17.95;10.75;;;1.30;89.50;;;;;;5054477;28;20043;-67
2021/01/31 01:14:39;;;;;;;15.95;10.52;;;1.30;89.50;;;;;;5059972;28;20060;-67
2021/01/31 01:17:04;;;;;;;18.70;11.30;;;1.30;89.40;;;;;;5043652;28;20051;-67
2021/01/31 01:19:30;;;;;;;17.55;10.80;;;1.30;89.40;;;;;;5042484;28;20594;-67
2021/01/31 01:21:56;;;;;;;17.83;10.55;;;1.30;89.50;;;;;;5054078;28;20045;-67
2021/01/31 01:24:22;;;;;;;18.83;11.40;;;1.30;89.60;;;;;;5062468;28;20032;-68
2021/01/31 01:26:47;;;;;;;19.30;11.70;;;1.40;90.00;;;;;;5052354;28;20119;-67
2021/01/31 01:29:13;;;;;;;16.73;10.98;;;1.40;89.50;;;;;;5053132;28;20023;-67
2021/01/31 01:31:39;;;;;;;17.55;10.63;;;1.40;89.40;;;;;;5052935;28;20056;-67
2021/01/31 01:34:05;;;;;;;18.70;11.68;;;1.40;89.40;;;;;;5051309;28;20052;-67
2021/01/31 01:36:31;;;;;;;18.27;11.05;;;1.40;89.30;;;;;;5053014;28;20036;-67
2021/01/31 01:38:56;;;;;;;18.05;10.57;;;1.40;89.30;;;;;;5058973;28;20016;-67
2021/01/31 01:41:22;;;;;;;17.10;10.65;;;1.40;89.20;;;;;;5034233;28;20041;-67
2021/01/31 01:43:53;;;;;;;16.35;10.18;;;1.40;89.30;;;;;;5054810;28;20021;-67
2021/01/31 01:46:19;;;;;;;16.20;10.80;;;1.30;89.20;;;;;;5053545;28;20032;-67
2021/01/31 01:48:46;;;;;;;18.15;10.88;;;1.30;89.30;;;;;;5035135;28;20401;-67
2021/01/31 01:51:16;;;;;;;17.33;10.43;;;1.30;89.30;;;;;;5055745;28;20085;-67
2021/01/31 01:53:42;;;;;;;19.38;11.25;;;1.30;89.40;;;;;;5055819;28;20021;-67
2021/01/31 01:56:45;;;;;;;16.67;10.57;;;1.30;89.40;;;;;;5057431;28;20624;-67
2021/01/31 01:59:11;;;;;;;16.23;10.68;;;1.40;89.50;;;;;;5053152;28;20457;-68
2021/01/31 02:01:48;;;;;;;15.95;10.50;;;1.40;89.30;;;;;;5051747;28;20103;-67
2021/01/31 02:04:14;;;;;;;14.93;9.52;;;1.40;89.40;;;;;;5051513;28;20029;-68
2021/01/31 02:06:40;;;;;;;15.27;9.75;;;1.40;89.30;;;;;;5059693;28;20055;-68
2021/01/31 02:09:07;;;;;;;16.35;9.77;;;1.40;89.20;;;;;;5060431;28;20539;-68
2021/01/31 02:11:32;;;;;;;16.50;10.52;;;1.40;89.10;;;;;;5052333;28;20033;-67
2021/01/31 02:14:02;;;;;;;15.60;10.45;;;1.30;89.10;;;;;;5050543;28;20104;-68
2021/01/31 02:16:59;;;;;;;16.88;10.77;;;1.30;89.30;;;;;;5051049;28;20733;-67
2021/01/31 02:19:37;;;;;;;16.52;10.30;;;1.30;89.20;;;;;;5059523;28;20065;-67
2021/01/31 02:22:39;;;;;;;16.27;10.85;;;1.30;89.10;;;;;;5054571;28;21738;-67
2021/01/31 02:25:23;;;;;;;16.35;10.65;;;1.30;89.30;;;;;;5048054;28;20052;-67
2021/01/31 02:28:20;;;;;;;16.25;10.00;;;1.30;89.20;;;;;;5035028;28;20060;-67
2021/01/31 02:30:54;;;;;;;15.50;9.90;;;1.30;89.20;;;;;;5025428;28;20029;-67
2021/01/31 02:33:39;;;;;;;18.00;9.80;;;1.30;89.10;;;;;;5068416;28;20043;-67
2021/01/31 02:36:24;;;;;;;14.50;9.55;;;1.20;89.20;;;;;;5052810;28;20090;-67
2021/01/31 02:38:52;;;;;;;14.73;10.00;;;1.20;89.10;;;;;;5063975;28;20033;-67
2021/01/31 02:41:40;;;;;;;16.98;10.63;;;1.30;89.20;;;;;;5051402;28;20036;-68
2021/01/31 02:44:10;;;;;;;15.77;9.40;;;1.30;89.30;;;;;;5056438;28;20025;-67
2021/01/31 02:46:45;;;;;;;15.82;10.25;;;1.30;89.10;;;;;;5059479;28;20389;-68
2021/01/31 02:49:28;;;;;;;18.40;9.85;;;1.30;89.10;;;;;;5056773;28;20021;-68
2021/01/31 02:52:18;;;;;;;17.23;9.93;;;1.30;89.10;;;;;;5051682;28;20025;-68
2021/01/31 02:54:48;;;;;;;15.15;10.15;;;1.30;89.10;;;;;;5031773;28;20030;-68
2021/01/31 02:57:18;;;;;;;15.25;9.90;;;1.30;89.10;;;;;;5053636;28;20473;-68
2021/01/31 02:59:50;;;;;;;17.90;10.18;;;1.30;89.00;;;;;;5036309;28;20025;-68
2021/01/31 03:02:21;;;;;;;16.30;10.32;;;1.30;89.10;;;;;;5042220;28;20029;-67
2021/01/31 03:04:52;;;;;;;17.17;9.90;;;1.30;89.00;;;;;;5056213;28;20020;-68
2021/01/31 03:07:24;;;;;;;16.83;10.18;;;1.30;89.10;;;;;;5031144;28;20032;-67
2021/01/31 03:10:03;;;;;;;16.38;10.38;;;1.30;89.10;;;;;;5051223;28;20382;-68
2021/01/31 03:12:38;;;;;;;17.67;10.52;;;1.30;89.10;;;;;;5054366;28;20029;-67
2021/01/31 03:15:15;;;;;;;14.73;9.65;;;1.40;89.00;;;;;;5053814;28;20033;-68
2021/01/31 03:18:05;;;;;;;16.17;10.30;;;1.30;88.90;;;;;;5040388;28;20041;-68
2021/01/31 03:20:37;;;;;;;16.92;10.13;;;1.30;88.90;;;;;;5054483;28;20123;-68
2021/01/31 03:23:28;;;;;;;16.92;10.48;;;1.40;89.00;;;;;;5060696;28;20078;-68
2021/01/31 03:26:04;;;;;;;16.33;9.88;;;1.40;89.00;;;;;;5055140;28;20029;-67
2021/01/31 03:28:30;;;;;;;15.88;9.60;;;1.40;88.90;;;;;;5046343;28;20028;-67
2021/01/31 03:30:59;;;;;;;15.50;9.57;;;1.40;88.90;;;;;;5055657;28;20033;-67
2021/01/31 03:33:30;;;;;;;16.02;9.98;;;1.50;88.90;;;;;;5050108;28;20029;-67
2021/01/31 03:35:56;;;;;;;15.20;9.95;;;1.50;88.80;;;;;;5044249;28;20029;-67
2021/01/31 03:38:53;;;;;;;17.67;10.55;;;1.50;88.90;;;;;;5050163;28;20032;-68
2021/01/31 03:41:24;;;;;;;17.30;10.60;;;1.50;89.10;;;;;;5040527;28;20041;-68
2021/01/31 03:43:50;;;;;;;16.20;10.35;;;1.50;89.00;;;;;;5043610;28;20039;-67
2021/01/31 03:46:34;;;;;;;16.92;9.63;;;1.60;88.90;;;;;;5052997;28;20025;-67
2021/01/31 03:49:25;;;;;;;17.83;9.80;;;1.60;88.60;;;;;;5053196;28;20075;-68
2021/01/31 03:51:52;;;;;;;16.25;9.23;;;1.60;88.60;;;;;;5059957;28;20518;-68
2021/01/31 03:54:17;;;;;;;13.75;9.20;;;1.60;88.60;;;;;;5058445;28;20029;-68
2021/01/31 03:56:54;;;;;;;14.32;8.95;;;1.50;88.60;;;;;;5062699;28;20529;-68
2021/01/31 03:59:30;;;;;;;15.95;9.82;;;1.50;88.60;;;;;;5065714;28;20100;-68
2021/01/31 04:01:58;;;;;;;14.38;9.27;;;1.50;88.70;;;;;;5050659;28;20021;-68
2021/01/31 04:04:38;;;;;;;13.85;9.57;;;1.50;88.70;;;;;;5048496;28;20382;-67
2021/01/31 04:07:08;;;;;;;15.63;9.60;;;1.50;88.80;;;;;;5058634;28;20032;-67
2021/01/31 04:12:05;;;;;;;16.65;9.85;;;1.40;88.60;;;;;;5030415;28;20102;-72
2021/01/31 04:14:40;;;;;;;17.13;9.82;;;1.50;88.80;;;;;;5025065;28;20026;-71
2021/01/31 04:17:05;;;;;;;15.20;9.57;;;1.40;88.80;;;;;;5047647;28;20039;-71
2021/01/31 04:19:31;;;;;;;15.10;9.30;;;1.50;88.70;;;;;;5032288;28;20034;-71
2021/01/31 04:21:57;;;;;;;15.10;9.57;;;1.50;88.60;;;;;;5029365;28;20074;-71
2021/01/31 04:24:22;;;;;;;13.90;8.98;;;1.50;88.70;;;;;;5025129;28;20034;-71
2021/01/31 04:26:48;;;;;;;13.70;9.10;;;1.40;88.60;;;;;;5026132;28;20028;-72
2021/01/31 04:29:13;;;;;;;14.27;9.45;;;1.50;88.60;;;;;;5029631;28;20155;-71
2021/01/31 04:31:39;;;;;;;15.38;9.30;;;1.40;88.60;;;;;;5028102;28;20396;-71
2021/01/31 04:34:04;;;;;;;13.95;8.85;;;1.40;88.60;;;;;;5028878;28;20045;-71
2021/01/31 04:36:30;;;;;;;11.52;8.00;;;1.40;88.60;;;;;;5028349;28;20040;-70
2021/01/31 04:38:56;;;;;;;12.30;7.97;;;1.40;88.50;;;;;;5029131;28;20092;-71
2021/01/31 04:41:32;;;;;;;14.23;8.75;;;1.40;88.60;;;;;;5036366;28;20029;-71
2021/01/31 04:43:58;;;;;;;14.25;8.65;;;1.40;88.60;;;;;;5009932;28;20025;-71
2021/01/31 04:46:44;;;;;;;12.93;8.32;;;1.40;88.60;;;;;;5030074;28;20458;-71
2021/01/31 04:49:17;;;;;;;12.75;8.60;;;1.40;88.80;;;;;;5028423;28;20029;-71
2021/01/31 04:52:04;;;;;;;14.73;9.23;;;1.40;88.70;;;;;;5029687;28;20033;-72
2021/01/31 04:54:49;;;;;;;18.25;9.45;;;1.30;88.70;;;;;;5026925;28;20100;-71
2021/01/31 04:57:23;;;;;;;13.32;8.55;;;1.30;88.70;;;;;;5025335;28;20026;-72
2021/01/31 04:59:50;;;;;;;14.38;8.93;;;1.30;88.70;;;;;;5014163;28;20026;-72
2021/01/31 05:02:37;;;;;;;17.02;9.25;;;1.30;88.70;;;;;;5021396;28;20029;-71
2021/01/31 05:05:06;;;;;;;13.25;8.70;;;1.30;88.80;;;;;;5029314;28;20022;-70
2021/01/31 05:07:47;;;;;;;14.52;8.98;;;1.40;88.70;;;;;;5028683;28;20478;-71
2021/01/31 05:10:13;;;;;;;13.45;8.45;;;1.40;88.70;;;;;;5035954;28;20402;-71
2021/01/31 05:12:59;;;;;;;13.05;8.23;;;1.40;88.60;;;;;;5032998;28;20162;-70
2021/01/31 05:15:29;;;;;;;14.80;8.73;;;1.40;88.60;;;;;;5009655;28;20034;-71
2021/01/31 05:17:58;;;;;;;15.52;9.00;;;1.40;88.50;;;;;;5028244;28;20160;-70
2021/01/31 05:20:27;;;;;;;13.18;8.52;;;1.30;88.60;;;;;;5033241;28;20026;-72
2021/01/31 05:22:57;;;;;;;14.23;9.00;;;1.30;88.60;;;;;;5041886;28;20112;-70
2021/01/31 05:25:29;;;;;;;12.68;8.57;;;1.30;88.60;;;;;;5031519;28;20029;-71
2021/01/31 05:27:58;;;;;;;14.30;9.35;;;1.30;88.60;;;;;;5033675;28;20494;-71
2021/01/31 05:30:26;;;;;;;12.82;8.35;;;1.40;88.70;;;;;;5033041;28;20068;-70
2021/01/31 05:33:15;;;;;;;14.65;8.25;;;1.40;88.50;;;;;;5031539;28;20385;-71
2021/01/31 05:35:46;;;;;;;13.57;8.15;;;1.40;88.60;;;;;;5027087;28;20033;-71
2021/01/31 05:38:14;;;;;;;13.88;8.15;;;1.40;88.50;;;;;;5031507;28;20090;-71
2021/01/31 05:40:43;;;;;;;14.38;8.63;;;1.30;88.60;;;;;;5048535;28;20044;-71
2021/01/31 05:43:24;;;;;;;12.98;8.95;;;1.30;88.40;;;;;;5038925;28;20067;-73
2021/01/31 05:45:49;;;;;;;13.57;8.48;;;1.30;88.50;;;;;;5028115;28;20558;-70
2021/01/31 05:48:23;;;;;;;13.43;8.88;;;1.30;88.50;;;;;;5015766;28;20067;-71
2021/01/31 05:50:51;;;;;;;14.00;8.95;;;1.30;88.60;;;;;;5032176;28;20489;-72
2021/01/31 05:53:36;;;;;;;13.80;8.85;;;1.30;88.50;;;;;;5027887;28;20480;-73
2021/01/31 05:56:22;;;;;;;14.48;9.18;;;1.30;88.50;;;;;;5032150;28;20100;-71
2021/01/31 05:58:49;;;;;;;15.25;8.98;;;1.30;88.60;;;;;;5027410;28;20064;-71
2021/01/31 06:01:15;;;;;;;13.48;8.57;;;1.30;88.50;;;;;;5032138;28;20014;-70
2021/01/31 06:03:41;;;;;;;15.30;9.15;;;1.40;88.60;;;;;;5031361;28;20032;-70
2021/01/31 06:06:26;;;;;;;14.00;8.77;;;1.40;88.50;;;;;;5031109;28;20033;-71
2021/01/31 06:08:54;;;;;;;15.52;9.20;;;1.30;88.50;;;;;;5032152;28;20041;-71
2021/01/31 06:11:31;;;;;;;13.63;8.70;;;1.40;88.50;;;;;;5036498;28;20036;-71
2021/01/31 06:14:09;;;;;;;14.90;8.52;;;1.40;88.60;;;;;;5027505;28;20026;-71
2021/01/31 06:16:37;;;;;;;13.10;8.52;;;1.40;88.50;;;;;;5030881;28;20052;-70
2021/01/31 06:19:11;;;;;;;15.07;9.40;;;1.40;88.50;;;;;;5012802;28;20492;-71
2021/01/31 06:21:41;;;;;;;12.57;8.13;;;1.40;88.50;;;;;;5030986;28;20116;-70
2021/01/31 06:24:19;;;;;;;14.25;8.85;;;1.40;88.50;;;;;;5031164;28;20021;-70
2021/01/31 06:26:45;;;;;;;12.98;8.77;;;1.40;88.40;;;;;;5027746;28;20457;-71
2021/01/31 06:29:33;;;;;;;12.27;8.25;;;1.40;88.40;;;;;;5030865;28;20075;-71
2021/01/31 06:32:22;;;;;;;14.50;9.38;;;1.40;88.50;;;;;;5029771;28;20109;-70
2021/01/31 06:34:52;;;;;;;14.68;9.32;;;1.40;88.50;;;;;;5030158;28;20017;-70
2021/01/31 06:37:23;;;;;;;12.75;8.68;;;1.50;88.40;;;;;;5031993;28;20031;-71
2021/01/31 06:40:05;;;;;;;14.00;9.20;;;1.50;88.30;;;;;;5033451;28;20057;-71
2021/01/31 06:42:54;;;;;;;12.60;8.45;;;1.40;88.20;;;;;;5044483;28;20047;-71
2021/01/31 06:45:51;;;;;;;14.45;9.05;;;1.40;88.30;;;;;;5033492;28;20052;-72
2021/01/31 06:48:54;;;;;;;14.15;9.60;;;1.40;88.40;;;;;;5023029;28;20104;-71
2021/01/31 06:51:41;;;;;;;14.77;8.82;;;1.50;88.40;;;;;;5021730;28;20042;-70
2021/01/31 06:54:31;;;;;;;13.43;9.07;;;1.50;88.30;;;;;;5032580;28;20055;-72
2021/01/31 06:57:05;;;;;;;12.23;7.63;;;1.50;88.30;;;;;;5023043;28;20399;-68
2021/01/31 06:59:54;;;;;;;14.02;9.18;;;1.50;88.20;;;;;;5023393;28;20049;-73
2021/01/31 07:02:50;;;;;;;15.05;9.23;;;1.40;88.20;;;;;;5024871;28;20029;-71
2021/01/31 07:05:50;;;;;;;14.02;8.95;;;1.40;88.30;;;;;;5030303;28;20143;-72
2021/01/31 07:08:31;;;;;;;14.75;8.98;;;1.40;88.20;;;;;;5029949;28;20057;-71
2021/01/31 07:11:39;;;;;;;16.63;9.40;;;1.40;88.20;;;;;;5037780;28;20427;-72
2021/01/31 07:14:17;;;;;;;14.70;9.15;;;1.40;88.30;;;;;;5007220;28;20280;-71
2021/01/31 07:17:21;;;;;;;14.65;9.15;;;1.40;88.30;;;;;;5029301;28;20355;-71
2021/01/31 07:19:54;;;;;;;15.43;9.15;;;1.40;88.20;;;;;;5010977;28;20072;-71
2021/01/31 07:22:42;;;;;;;15.38;9.95;;;1.40;88.20;;;;;;5037655;28;20025;-72
2021/01/31 07:25:10;;;;;;;14.48;8.70;;;1.40;88.20;;;;;;5044951;28;20028;-70
2021/01/31 07:28:13;;;;;;;14.15;8.95;;;1.40;88.10;;;;;;5030981;28;20026;-71
2021/01/31 07:30:44;;;;;;;14.48;9.48;;;1.40;88.10;;;;;;5023833;28;20041;-70
2021/01/31 07:33:33;;;;;;;14.48;9.48;;;1.40;88.10;;;;;;5030019;28;20133;-72
2021/01/31 07:36:11;;;;;;;13.70;9.05;;;1.40;88.70;;;;;;5029776;28;20029;-69
2021/01/31 07:39:00;;;;;;;13.93;8.95;;;1.40;88.10;;;;;;5030615;28;20422;-70
2021/01/31 07:41:28;;;;;;;14.82;9.13;;;1.40;88.10;;;;;;5031816;28;20763;-72
2021/01/31 07:44:07;;;;;;;15.68;8.75;;;1.50;88.10;;;;;;5029211;28;20112;-70
2021/01/31 07:46:33;;;;;;;14.32;9.13;;;1.50;88.20;;;;;;5030546;28;20049;-70
2021/01/31 07:49:01;;;;;;;15.80;9.68;;;1.50;88.20;;;;;;5030416;28;20025;-71
2021/01/31 07:51:26;;;;;;;19.50;11.02;;;1.50;88.10;;;;;;5031263;28;20024;-71
2021/01/31 07:53:54;;;;;;;16.17;9.77;;;1.50;88.10;;;;;;5029328;28;20037;-72
2021/01/31 07:56:35;;;;;;;14.30;9.57;;;1.50;88.10;;;;;;5030389;28;20078;-70
2021/01/31 07:59:09;;;;;;;16.05;9.38;;;1.50;88.10;;;;;;5040770;28;20033;-70
2021/01/31 08:01:40;;;;;;;16.13;9.90;;;1.50;88.00;;;;;;5037527;28;20025;-72
2021/01/31 08:04:15;;;;;;;15.60;9.88;;;1.50;88.10;;;;;;5029351;28;20032;-70
2021/01/31 08:06:42;;;;;;;15.90;10.23;;;1.50;88.00;;;;;;5030161;28;20025;-70
2021/01/31 08:09:09;;;;;;;15.25;9.45;;;1.50;88.00;;;;;;5031415;28;20033;-69
2021/01/31 08:11:38;;;;;;;16.35;10.05;;;1.50;88.50;;;;;;5049892;28;20063;-73
2021/01/31 08:14:04;;;;;;;13.82;9.23;;;1.50;88.00;;;;;;5018696;28;20036;-71
2021/01/31 08:16:48;;;;;;;16.13;10.00;;;1.60;88.00;;;;;;5028988;28;20116;-71
2021/01/31 08:19:16;;;;;;;15.10;9.65;;;1.60;88.10;;;;;;5018481;28;20104;-70
2021/01/31 08:21:59;;;;;;;14.18;9.52;;;1.60;88.00;;;;;;5030285;28;20022;-70
2021/01/31 08:24:56;;;;;;;16.75;9.80;;;1.60;88.00;;;;;;5029272;28;20032;-70
2021/01/31 08:28:11;;;;;;;16.52;9.30;;;1.60;88.00;;;;;;5011870;28;20087;-70
2021/01/31 08:30:40;;;;;;;14.85;9.00;;;1.70;87.90;;;;;;5004543;28;20033;-70
2021/01/31 08:33:18;;;;;;;15.68;8.90;;;1.70;87.80;;;;;;5030001;28;20409;-71
2021/01/31 08:35:44;;;;;;;16.02;9.23;;;1.70;87.80;;;;;;5026389;28;20025;-70
2021/01/31 08:38:25;;;;;;;15.82;9.43;;;1.70;87.80;;;;;;5030085;28;20040;-72
2021/01/31 08:41:01;;;;;;;16.60;9.13;;;1.70;87.90;;;;;;5040563;28;20061;-70
2021/01/31 08:43:36;;;;;;;16.35;9.80;;;1.70;87.90;;;;;;5025642;28;20045;-70
2021/01/31 08:46:16;;;;;;;15.60;9.85;;;1.70;87.70;;;;;;5029213;28;20071;-72
2021/01/31 08:48:49;;;;;;;15.35;9.23;;;1.70;87.70;;;;;;5029912;28;20136;-70
2021/01/31 08:51:17;;;;;;;16.13;10.30;;;1.70;87.60;;;;;;5029787;28;20030;-70
2021/01/31 08:53:43;;;;;;;16.42;10.00;;;1.80;87.80;;;;;;5032406;28;20029;-71
2021/01/31 08:56:20;;;;;;;15.45;9.57;;;1.70;87.80;;;;;;5032655;28;20040;-71
2021/01/31 08:58:45;;;;;;;15.20;9.95;;;1.70;87.70;;;;;;5032859;28;20022;-71
2021/01/31 09:01:11;;;;;;;15.05;9.52;;;1.80;87.80;;;;;;5032761;28;20113;-71
2021/01/31 09:03:41;;;;;;;15.63;9.63;;;1.80;87.90;;;;;;5029037;28;20041;-70
2021/01/31 09:06:07;;;;;;;19.25;10.00;;;1.80;87.80;;;;;;5027905;28;20033;-69
2021/01/31 09:08:33;;;;;;;15.23;9.57;;;1.80;87.90;;;;;;5032544;28;20354;-70
2021/01/31 09:11:04;;;;;;;15.88;9.55;;;1.80;87.80;;;;;;5033332;28;20061;-69
2021/01/31 09:13:33;;;;;;;16.95;9.23;;;1.80;87.70;;;;;;5033064;28;20492;-69
2021/01/31 09:16:24;;;;;;;14.77;10.00;;;1.90;87.80;;;;;;5032352;28;20048;-69
2021/01/31 09:19:22;;;;;;;18.20;9.60;;;1.90;87.90;;;;;;5033279;28;20021;-69
2021/01/31 09:21:53;;;;;;;17.63;9.82;;;1.90;87.80;;;;;;5010585;28;20037;-69
2021/01/31 09:24:20;;;;;;;15.10;9.52;;;1.90;87.70;;;;;;5016847;28;20637;-69
2021/01/31 09:26:52;;;;;;;15.05;9.70;;;1.90;87.70;;;;;;5032851;28;20059;-74
2021/01/31 09:29:22;;;;;;;12.80;8.37;;;1.90;87.70;;;;;;5032681;28;20028;-72
2021/01/31 09:32:03;;;;;;;17.10;10.52;;;1.90;87.60;;;;;;5032848;28;20256;-68
2021/01/31 09:34:29;;;;;;;13.73;9.20;;;1.90;87.80;;;;;;5031421;28;20026;-69
2021/01/31 09:37:31;;;;;;;17.48;9.85;;;2.00;87.70;;;;;;5032295;28;20040;-69
2021/01/31 09:40:01;;;;;;;15.30;9.87;;;2.00;87.60;;;;;;5035958;28;20048;-69
2021/01/31 09:42:32;;;;;;;16.45;9.85;;;2.00;87.60;;;;;;5034175;28;20029;-69
2021/01/31 09:45:02;;;;;;;16.40;9.70;;;2.00;87.60;;;;;;5026169;28;20547;-73
2021/01/31 09:47:28;;;;;;;15.43;9.30;;;2.00;87.50;;;;;;5014998;28;20037;-70
2021/01/31 09:50:01;;;;;;;18.42;10.88;;;2.00;87.50;;;;;;5033352;28;20112;-68
2021/01/31 09:52:27;;;;;;;18.42;10.52;;;2.00;87.50;;;;;;5030959;28;20172;-68
2021/01/31 09:54:53;;;;;;;15.55;10.23;;;2.00;87.50;;;;;;5029681;28;20108;-70
2021/01/31 09:57:26;;;;;;;15.70;10.00;;;2.10;87.40;;;;;;5037146;28;20029;-70
2021/01/31 10:00:10;;;;;;;16.13;9.30;;;2.10;87.30;;;;;;5014475;28;20120;-69
2021/01/31 10:02:36;;;;;;;14.50;9.25;;;2.10;87.30;;;;;;5030010;28;20040;-69
2021/01/31 10:05:05;;;;;;;14.05;9.50;;;2.10;87.20;;;;;;5029637;28;20028;-70
2021/01/31 10:07:36;;;;;;;15.40;9.57;;;2.10;87.20;;;;;;5035533;28;20030;-69
2021/01/31 10:10:33;;;;;;;16.05;9.90;;;2.20;87.30;;;;;;5055586;22;20110;-67
2021/01/31 10:13:19;;;;;;;16.15;8.88;;;2.20;87.30;;;;;;5048199;28;20032;-67
2021/01/31 10:15:56;;;;;;;15.40;9.45;;;2.30;87.10;;;;;;5059448;28;20024;-67
2021/01/31 10:18:38;;;;;;;15.88;9.95;;;2.20;87.00;;;;;;5057533;28;20103;-67
2021/01/31 10:21:24;;;;;;;18.40;11.27;;;2.30;87.10;;;;;;5049428;28;20029;-67
2021/01/31 10:24:02;;;;;;;18.15;10.13;;;2.30;87.10;;;;;;5049122;28;20100;-68
2021/01/31 10:26:29;;;;;;;18.65;10.00;;;2.30;87.10;;;;;;5050927;28;20033;-67
2021/01/31 10:29:04;;;;;;;18.50;10.23;;;2.40;87.10;;;;;;5058761;28;20501;-67
2021/01/31 10:31:35;;;;;;;17.55;9.73;;;2.40;86.90;;;;;;5036719;28;20049;-67
2021/01/31 10:34:04;;;;;;;18.40;11.07;;;2.40;86.90;;;;;;5058626;28;20027;-66
2021/01/31 10:36:44;;;;;;;20.23;11.18;;;2.50;86.80;;;;;;5072463;28;20024;-66
2021/01/31 10:39:10;;;;;;;15.32;9.70;;;2.50;86.80;;;;;;5054932;28;20032;-68
2021/01/31 10:41:43;;;;;;;19.67;10.65;;;2.60;86.70;;;;;;5049917;28;20029;-67
2021/01/31 10:44:12;;;;;;;18.30;10.38;;;2.80;86.80;;;;;;5049341;28;20028;-66
2021/01/31 10:46:39;;;;;;;17.27;9.80;;;2.80;86.40;;;;;;5050162;28;20047;-67
2021/01/31 10:49:06;;;;;;;20.02;10.85;;;2.90;86.30;;;;;;5051345;28;20021;-67
2021/01/31 10:51:33;;;;;;;19.70;10.90;;;3.00;86.10;;;;;;5050656;28;20094;-67
2021/01/31 10:54:00;;;;;;;16.35;8.90;;;3.00;85.90;;;;;;5050264;28;20078;-67
2021/01/31 10:56:26;;;;;;;15.73;9.23;;;3.00;85.80;;;;;;5051134;28;20025;-67
2021/01/31 10:58:51;;;;;;;19.17;10.32;;;3.10;85.80;;;;;;5041827;28;20040;-67
2021/01/31 11:01:18;;;;;;;22.23;12.35;;;3.10;85.80;;;;;;5051015;28;20074;-67
2021/01/31 11:03:45;;;;;;;18.30;11.20;;;3.10;86.00;;;;;;5050632;28;20021;-67
2021/01/31 11:06:11;;;;;;;19.77;12.30;;;3.10;86.20;;;;;;5049766;28;20057;-67
2021/01/31 11:08:36;;;;;;;18.83;11.88;;;3.10;86.20;;;;;;5050882;28;20079;-66
2021/01/31 11:11:02;;;;;;;21.63;12.18;;;3.10;86.40;;;;;;5032401;28;20027;-66
2021/01/31 11:13:28;;;;;;;19.95;11.18;;;3.10;86.50;;;;;;5041463;28;20028;-66
2021/01/31 11:15:54;;;;;;;19.55;11.73;;;3.20;86.40;;;;;;5034509;28;20334;-67
2021/01/31 11:18:20;;;;;;;20.23;11.18;;;3.10;86.00;;;;;;5048650;28;20033;-66
2021/01/31 11:20:47;;;;;;;18.40;10.88;;;3.10;86.00;;;;;;5050836;28;20522;-66
2021/01/31 11:23:13;;;;;;;20.85;11.60;;;3.00;86.10;;;;;;5051289;28;20048;-68
2021/01/31 11:25:39;;;;;;;20.05;11.18;;;3.00;86.30;;;;;;5050134;28;20040;-67
2021/01/31 11:28:05;;;;;;;22.05;11.23;;;3.10;86.40;;;;;;5051550;28;20021;-66
2021/01/31 11:30:31;;;;;;;21.33;12.10;;;3.10;86.30;;;;;;5050184;28;20032;-66
2021/01/31 11:32:58;;;;;;;18.30;10.98;;;3.10;86.30;;;;;;5042454;28;20080;-66
2021/01/31 11:35:24;;;;;;;17.95;10.02;;;3.10;86.20;;;;;;5017695;28;20139;-67
2021/01/31 11:37:50;;;;;;;17.50;10.52;;;3.00;86.10;;;;;;5042200;28;20036;-67
2021/01/31 11:40:16;;;;;;;17.33;10.60;;;3.00;86.30;;;;;;5050742;28;20025;-67
2021/01/31 11:42:43;;;;;;;17.23;10.77;;;3.00;86.30;;;;;;5050219;28;20108;-67
2021/01/31 11:45:09;;;;;;;18.25;10.30;;;3.00;86.30;;;;;;5031706;28;20016;-66
2021/01/31 11:47:36;;;;;;;16.50;9.80;;;3.00;86.30;;;;;;5050105;28;20071;-66
2021/01/31 11:50:02;;;;;;;16.52;10.35;;;3.00;86.10;;;;;;5050739;28;20709;-67
2021/01/31 11:52:28;;;;;;;19.20;10.80;;;2.90;86.20;;;;;;5049833;28;20116;-68
2021/01/31 11:54:54;;;;;;;15.80;9.13;;;3.00;86.50;;;;;;5049328;28;20151;-67
2021/01/31 11:57:20;;;;;;;17.95;10.02;;;3.10;86.60;;;;;;5050224;28;20444;-66
2021/01/31 11:59:46;;;;;;;20.00;10.07;;;3.10;86.40;;;;;;5050227;28;20040;-66
2021/01/31 12:02:11;;;;;;;19.95;11.30;;;3.10;86.00;;;;;;5050617;28;20021;-66
2021/01/31 12:04:38;;;;;;;14.73;9.63;;;3.10;86.00;;;;;;5049183;28;20029;-67
2021/01/31 12:07:07;;;;;;;16.48;9.95;;;3.10;86.10;;;;;;5049722;28;20036;-66
2021/01/31 12:09:33;;;;;;;18.08;10.75;;;3.10;86.20;;;;;;5047298;28;20025;-66
2021/01/31 12:11:59;;;;;;;19.67;11.00;;;3.00;86.40;;;;;;5043187;28;20025;-68
2021/01/31 12:14:24;;;;;;;18.65;10.57;;;3.00;86.20;;;;;;5047406;28;20021;-66
2021/01/31 12:16:50;;;;;;;18.60;10.20;;;3.10;86.30;;;;;;5048130;28;20092;-66
2021/01/31 12:19:15;;;;;;;18.75;10.63;;;3.00;86.30;;;;;;5050215;28;20021;-66
2021/01/31 12:21:41;;;;;;;20.45;11.55;;;3.00;86.20;;;;;;5049935;28;20061;-67
2021/01/31 12:24:07;;;;;;;20.15;11.80;;;3.00;86.40;;;;;;5049155;28;20029;-66
2021/01/31 12:26:33;;;;;;;21.05;10.68;;;3.00;86.20;;;;;;5050581;28;20501;-66
2021/01/31 12:28:58;;;;;;;19.70;11.35;;;2.90;86.20;;;;;;5053910;28;20025;-66
2021/01/31 12:31:25;;;;;;;19.63;10.45;;;2.90;86.30;;;;;;5054241;28;20032;-66
2021/01/31 12:33:51;;;;;;;17.63;10.13;;;2.90;86.40;;;;;;5053380;28;20029;-66
2021/01/31 12:36:17;;;;;;;17.67;10.95;;;2.90;86.40;;;;;;5054506;28;20032;-66
2021/01/31 12:38:43;;;;;;;17.63;10.25;;;2.90;86.60;;;;;;5054054;28;20032;-66
2021/01/31 12:41:08;;;;;;;16.15;9.77;;;2.80;86.40;;;;;;5053814;28;20104;-66
2021/01/31 12:43:34;;;;;;;17.90;10.07;;;2.80;86.50;;;;;;5053997;28;20054;-66
2021/01/31 12:45:59;;;;;;;17.48;9.40;;;2.80;86.60;;;;;;5053383;28;20032;-66
2021/01/31 12:48:25;;;;;;;17.50;9.18;;;2.80;86.50;;;;;;5054357;28;20024;-67
2021/01/31 12:50:51;;;;;;;18.85;10.38;;;2.80;86.40;;;;;;5053962;28;20053;-66
2021/01/31 12:53:16;;;;;;;19.33;10.70;;;2.80;86.50;;;;;;5053771;28;20497;-66
2021/01/31 12:55:42;;;;;;;19.85;10.55;;;2.80;86.60;;;;;;5052906;28;20036;-66
2021/01/31 12:58:07;;;;;;;21.27;10.15;;;2.80;86.50;;;;;;5054005;28;20017;-66
2021/01/31 13:00:33;;;;;;;18.83;9.82;;;2.70;86.30;;;;;;5053065;28;20112;-66
2021/01/31 13:02:58;;;;;;;15.95;9.60;;;2.80;86.60;;;;;;5053851;28;20050;-66
2021/01/31 13:05:30;;;;;;;17.63;10.10;;;2.80;86.70;;;;;;5053119;28;20029;-67
2021/01/31 13:07:57;;;;;;;15.10;9.40;;;2.80;86.70;;;;;;5043345;28;20030;-66
2021/01/31 13:10:23;;;;;;;18.80;9.27;;;2.80;87.00;;;;;;5047819;28;20286;-66
2021/01/31 13:12:48;;;;;;;16.27;9.82;;;2.80;86.50;;;;;;5053336;28;20033;-66